createdAt,value
2018-01-08T00:02:17.432Z,8.93
2018-01-08T00:04:45.743Z,10.67
2018-01-08T00:07:13.857Z,10.37
2018-01-08T00:09:42.089Z,9.57
2018-01-08T00:12:09.649Z,9.37
2018-01-08T00:14:37.216Z,8.43
2018-01-08T00:17:04.780Z,9.27
2018-01-08T00:19:32.913Z,8.33
2018-01-08T00:22:00.499Z,10.63
2018-01-08T00:24:28.065Z,9.90
2018-01-08T00:26:55.600Z,10.93
2018-01-08T00:29:24.609Z,10.03
2018-01-08T00:31:52.736Z,10.33
2018-01-08T00:34:20.284Z,8.93
2018-01-08T00:36:47.840Z,8.60
2018-01-08T00:39:15.391Z,10.67
2018-01-08T00:41:42.990Z,9.10
2018-01-08T00:44:10.532Z,9.33
2018-01-08T00:46:38.101Z,10.97
2018-01-08T00:49:09.040Z,9.83
2018-01-08T00:51:36.583Z,11.70
2018-01-08T00:54:04.137Z,12.30
2018-01-08T00:56:31.695Z,10.47
2018-01-08T00:59:03.351Z,11.37
2018-01-08T01:01:31.338Z,9.03
2018-01-08T01:03:58.870Z,10.50
2018-01-08T01:06:27.238Z,10.40
2018-01-08T01:08:56.810Z,10.20
2018-01-08T01:11:25.531Z,11.17
2018-01-08T01:13:53.108Z,11.80
2018-01-08T01:16:20.746Z,9.90
2018-01-08T01:18:49.314Z,9.47
2018-01-08T01:21:16.874Z,8.83
2018-01-08T01:23:45.578Z,10.43
2018-01-08T01:26:13.164Z,8.43
2018-01-08T01:28:41.501Z,10.90
2018-01-08T01:31:09.066Z,9.40
2018-01-08T01:33:36.692Z,12.60
2018-01-08T01:36:04.284Z,10.03
2018-01-08T01:38:33.774Z,9.13
2018-01-08T01:41:01.387Z,10.00
2018-01-08T01:43:29.515Z,11.57
2018-01-08T01:45:57.155Z,12.53
2018-01-08T01:48:31.483Z,10.57
2018-01-08T01:50:59.022Z,11.67
2018-01-08T01:53:27.369Z,13.73
2018-01-08T01:55:54.930Z,14.17
2018-01-08T01:58:32.367Z,11.10
2018-01-08T02:01:01.320Z,10.00
2018-01-08T02:03:28.860Z,11.47
2018-01-08T02:05:56.401Z,10.17
2018-01-08T02:08:24.050Z,10.30
2018-01-08T02:10:51.632Z,12.40
2018-01-08T02:13:19.645Z,10.70
2018-01-08T02:15:47.234Z,11.70
2018-01-08T02:18:22.591Z,10.67
2018-01-08T02:20:50.262Z,11.00
2018-01-08T02:23:19.165Z,11.17
2018-01-08T02:25:47.351Z,11.07
2018-01-08T02:28:28.045Z,13.00
2018-01-08T02:30:55.586Z,11.70
2018-01-08T02:33:23.152Z,10.40
2018-01-08T02:35:50.736Z,12.30
2018-01-08T02:38:22.650Z,11.90
2018-01-08T02:40:50.262Z,11.60
2018-01-08T02:43:17.818Z,11.47
2018-01-08T02:45:45.346Z,12.40
2018-01-08T02:48:12.913Z,11.37
2018-01-08T02:50:40.477Z,10.50
2018-01-08T02:53:08.913Z,12.53
2018-01-08T02:55:37.272Z,12.63
2018-01-08T02:58:07.731Z,10.77
2018-01-08T03:00:36.063Z,11.87
2018-01-08T03:03:03.633Z,11.97
2018-01-08T03:05:31.201Z,11.40
2018-01-08T03:08:02.240Z,11.87
2018-01-08T03:10:29.812Z,11.57
2018-01-08T03:12:57.362Z,12.57
2018-01-08T03:15:24.944Z,12.40
2018-01-08T03:17:59.400Z,11.70
2018-01-08T03:20:27.628Z,11.83
2018-01-08T03:22:55.162Z,12.33
2018-01-08T03:25:22.718Z,12.67
2018-01-08T03:27:54.310Z,13.23
2018-01-08T03:30:21.848Z,11.87
2018-01-08T03:32:49.365Z,13.63
2018-01-08T03:35:17.732Z,12.00
2018-01-08T03:37:46.321Z,11.07
2018-01-08T03:40:13.879Z,11.47
2018-01-08T03:42:41.435Z,13.00
2018-01-08T03:45:09.999Z,13.63
2018-01-08T03:47:37.561Z,14.30
2018-01-08T03:50:05.152Z,11.17
2018-01-08T03:52:33.478Z,11.90
2018-01-08T03:55:01.052Z,13.07
2018-01-08T03:57:31.587Z,14.13
2018-01-08T03:59:59.148Z,12.47
2018-01-08T04:02:26.715Z,13.07
2018-01-08T04:04:54.340Z,12.23
2018-01-08T04:07:22.536Z,11.93
2018-01-08T04:09:50.107Z,12.87
2018-01-08T04:12:17.701Z,13.43
2018-01-08T04:14:45.260Z,12.73
2018-01-08T04:17:12.865Z,13.27
2018-01-08T04:19:40.453Z,12.40
2018-01-08T04:22:09.234Z,11.47
2018-01-08T04:24:37.287Z,12.30
2018-01-08T04:27:04.863Z,11.40
2018-01-08T04:29:32.399Z,11.83
2018-01-08T04:32:00.712Z,13.57
2018-01-08T04:34:28.290Z,12.17
2018-01-08T04:36:55.862Z,13.93
2018-01-08T04:39:23.422Z,12.87
2018-01-08T04:41:51.042Z,13.47
2018-01-08T04:44:18.604Z,14.00
2018-01-08T04:46:46.154Z,13.33
2018-01-08T04:49:13.739Z,14.03
2018-01-08T04:51:41.296Z,14.47
2018-01-08T04:54:08.888Z,14.17
2018-01-08T04:56:36.467Z,14.30
2018-01-08T04:59:04.079Z,14.33
2018-01-08T05:01:31.691Z,12.73
2018-01-08T05:03:59.248Z,14.80
2018-01-08T05:06:26.845Z,12.13
2018-01-08T05:08:55.131Z,12.50
2018-01-08T05:11:23.453Z,13.37
2018-01-08T05:13:51.076Z,12.93
2018-01-08T05:16:18.635Z,11.63
2018-01-08T05:18:46.979Z,13.37
2018-01-08T05:21:14.525Z,13.10
2018-01-08T05:23:42.152Z,13.13
2018-01-08T05:26:12.715Z,13.47
2018-01-08T05:28:40.256Z,13.50
2018-01-08T05:31:07.825Z,12.03
2018-01-08T05:33:35.599Z,12.23
2018-01-08T05:36:03.147Z,14.43
2018-01-08T05:38:30.708Z,12.33
2018-01-08T05:40:58.907Z,14.27
2018-01-08T05:43:26.471Z,13.63
2018-01-08T05:45:56.682Z,14.27
2018-01-08T05:48:29.153Z,13.27
2018-01-08T05:50:56.765Z,12.37
2018-01-08T05:53:24.342Z,13.23
2018-01-08T05:55:52.670Z,13.47
2018-01-08T05:58:20.269Z,13.83
2018-01-08T06:00:47.848Z,13.07
2018-01-08T06:03:16.179Z,13.73
2018-01-08T06:05:43.730Z,13.37
2018-01-08T06:08:11.317Z,13.73
2018-01-08T06:10:38.914Z,13.73
2018-01-08T06:13:07.480Z,13.50
2018-01-08T06:15:35.780Z,13.47
2018-01-08T06:18:11.217Z,13.37
2018-01-08T06:20:40.388Z,13.23
2018-01-08T06:23:08.909Z,13.97
2018-01-08T06:25:36.539Z,12.43
2018-01-08T06:28:04.125Z,14.37
2018-01-08T06:30:31.768Z,12.90
2018-01-08T06:32:59.400Z,14.80
2018-01-08T06:35:27.005Z,13.90
2018-01-08T06:38:01.582Z,12.97
2018-01-08T06:40:29.275Z,13.23
2018-01-08T06:42:56.861Z,13.60
2018-01-08T06:45:24.410Z,13.03
2018-01-08T06:47:59.018Z,13.30
2018-01-08T06:50:26.588Z,12.37
2018-01-08T06:52:55.218Z,15.30
2018-01-08T06:55:23.596Z,13.53
2018-01-08T06:57:52.954Z,15.77
2018-01-08T07:00:20.577Z,14.00
2018-01-08T07:02:48.156Z,16.00
2018-01-08T07:05:15.738Z,13.20
2018-01-08T07:07:44.572Z,13.03
2018-01-08T07:10:12.548Z,14.03
2018-01-08T07:12:40.936Z,12.43
2018-01-08T07:15:09.279Z,13.17
2018-01-08T07:17:36.863Z,15.20
2018-01-08T07:20:05.185Z,14.90
2018-01-08T07:22:33.985Z,13.37
2018-01-08T07:25:01.560Z,13.00
2018-01-08T07:27:29.135Z,13.87
2018-01-08T07:29:56.674Z,15.10
2018-01-08T07:32:25.082Z,13.43
2018-01-08T07:34:52.738Z,13.77
2018-01-08T07:37:22.332Z,14.93
2018-01-08T07:39:50.914Z,14.70
2018-01-08T07:42:18.480Z,13.53
2018-01-08T07:44:46.256Z,12.33
2018-01-08T07:47:13.825Z,13.53
2018-01-08T07:49:41.385Z,14.30
2018-01-08T07:52:08.999Z,12.27
2018-01-08T07:54:36.571Z,15.07
2018-01-08T07:57:05.179Z,14.17
2018-01-08T07:59:33.443Z,14.13
2018-01-08T08:02:01.010Z,12.83
2018-01-08T08:04:28.553Z,13.80
2018-01-08T08:06:56.122Z,13.33
2018-01-08T08:09:24.661Z,13.57
2018-01-08T08:11:52.236Z,15.63
2018-01-08T08:14:19.808Z,15.90
2018-01-08T08:16:47.372Z,14.27
2018-01-08T08:19:14.920Z,16.13
2018-01-08T08:21:43.266Z,13.83
2018-01-08T08:24:10.844Z,12.03
2018-01-08T08:26:38.433Z,13.70
2018-01-08T08:29:06.788Z,15.00
2018-01-08T08:31:34.339Z,16.07
2018-01-08T08:34:01.969Z,13.23
2018-01-08T08:36:29.561Z,13.47
2018-01-08T08:38:57.126Z,14.40
2018-01-08T08:41:24.679Z,13.57
2018-01-08T08:43:52.276Z,13.90
2018-01-08T08:46:20.661Z,15.43
2018-01-08T08:48:53.715Z,15.03
2018-01-08T08:51:21.290Z,15.90
2018-01-08T08:53:48.866Z,13.67
2018-01-08T08:56:16.454Z,14.07
2018-01-08T08:58:44.018Z,13.10
2018-01-08T09:01:11.588Z,14.97
2018-01-08T09:03:39.210Z,16.07
2018-01-08T09:06:07.643Z,15.17
2018-01-08T09:08:35.205Z,15.97
2018-01-08T09:11:02.768Z,15.27
2018-01-08T09:13:30.402Z,14.63
2018-01-08T09:15:59.273Z,15.53
2018-01-08T09:18:29.899Z,14.93
2018-01-08T09:20:57.471Z,17.33
2018-01-08T09:23:25.767Z,13.33
2018-01-08T09:25:54.139Z,12.73
2018-01-08T09:28:21.712Z,14.50
2018-01-08T09:30:50.088Z,14.83
2018-01-08T09:33:18.483Z,15.57
2018-01-08T09:35:46.038Z,13.83
2018-01-08T09:38:13.652Z,15.13
2018-01-08T09:40:41.721Z,14.73
2018-01-08T09:43:09.322Z,13.97
2018-01-08T09:45:37.673Z,15.50
2018-01-08T09:48:05.259Z,15.30
2018-01-08T09:50:33.630Z,13.63
2018-01-08T09:53:01.207Z,15.87
2018-01-08T09:55:29.563Z,13.80
2018-01-08T09:58:00.208Z,16.50
2018-01-08T10:00:27.780Z,17.37
2018-01-08T10:03:08.092Z,13.50
2018-01-08T10:05:47.535Z,14.83
2018-01-08T10:08:26.965Z,13.47
2018-01-08T10:11:06.551Z,15.93
2018-01-08T10:13:46.072Z,15.40
2018-01-08T10:16:25.514Z,13.97
2018-01-08T10:19:02.672Z,14.10
2018-01-08T10:21:30.308Z,13.90
2018-01-08T10:23:58.662Z,15.47
2018-01-08T10:26:26.251Z,15.37
2018-01-08T10:28:56.542Z,15.93
2018-01-08T10:31:24.173Z,14.30
2018-01-08T10:33:51.733Z,13.20
2018-01-08T10:36:19.310Z,13.83
2018-01-08T10:38:46.901Z,13.43
2018-01-08T10:41:14.000Z,18.27
2018-01-08T10:43:47.273Z,14.20
2018-01-08T10:46:21.183Z,14.33
2018-01-08T10:48:55.067Z,15.13
2018-01-08T10:51:28.258Z,13.47
2018-01-08T10:53:55.860Z,14.20
2018-01-08T10:56:23.417Z,13.67
2018-01-08T10:58:51.935Z,15.47
2018-01-08T11:01:25.780Z,15.00
2018-01-08T11:03:59.026Z,14.03
2018-01-08T11:06:27.354Z,14.77
2018-01-08T11:08:54.916Z,13.90
2018-01-08T11:11:22.494Z,14.33
2018-01-08T11:13:52.050Z,14.03
2018-01-08T11:16:20.410Z,14.00
2018-01-08T11:18:47.963Z,13.03
2018-01-08T11:21:15.523Z,14.43
2018-01-08T11:23:43.071Z,14.60
2018-01-08T11:26:10.659Z,16.00
2018-01-08T11:28:40.213Z,14.43
2018-01-08T11:31:07.794Z,14.87
2018-01-08T11:33:35.425Z,15.20
2018-01-08T11:36:03.026Z,16.03
2018-01-08T11:38:32.329Z,13.40
2018-01-08T11:41:01.272Z,14.33
2018-01-08T11:43:28.858Z,14.70
2018-01-08T11:45:56.428Z,14.10
2018-01-08T11:48:36.450Z,15.03
2018-01-08T11:51:04.086Z,17.43
2018-01-08T11:53:31.658Z,13.00
2018-01-08T11:56:00.410Z,14.17
2018-01-08T11:58:29.820Z,13.77
2018-01-08T12:00:58.140Z,13.00
2018-01-08T12:03:25.770Z,14.10
2018-01-08T12:05:54.105Z,16.33
2018-01-08T12:08:21.718Z,15.53
2018-01-08T12:10:49.285Z,14.90
2018-01-08T12:13:16.881Z,15.37
2018-01-08T12:15:44.433Z,14.37
2018-01-08T12:18:13.059Z,13.93
2018-01-08T12:20:41.245Z,13.90
2018-01-08T12:23:09.589Z,15.97
2018-01-08T12:25:37.189Z,15.20
2018-01-08T12:28:05.906Z,14.23
2018-01-08T12:30:34.454Z,15.23
2018-01-08T12:33:02.818Z,14.53
2018-01-08T12:35:30.490Z,14.77
2018-01-08T12:38:00.105Z,13.83
2018-01-08T12:40:28.600Z,13.97
2018-01-08T12:42:56.937Z,14.67
2018-01-08T12:45:24.557Z,15.77
2018-01-08T12:47:53.074Z,13.73
2018-01-08T12:50:20.662Z,14.50
2018-01-08T12:52:48.242Z,13.73
2018-01-08T12:55:15.813Z,13.40
2018-01-08T12:57:44.133Z,16.23
2018-01-08T13:00:19.391Z,14.00
2018-01-08T13:02:50.847Z,16.07
2018-01-08T13:05:21.999Z,13.47
2018-01-08T13:07:59.895Z,13.83
2018-01-08T13:10:27.474Z,14.87
2018-01-08T13:12:55.036Z,13.83
2018-01-08T13:15:22.644Z,13.23
2018-01-08T13:17:50.700Z,15.47
2018-01-08T13:20:19.028Z,14.23
2018-01-08T13:22:46.658Z,15.33
2018-01-08T13:25:15.078Z,15.20
2018-01-08T13:27:46.121Z,14.00
2018-01-08T13:30:13.730Z,13.37
2018-01-08T13:32:42.045Z,14.70
2018-01-08T13:35:09.629Z,14.90
2018-01-08T13:37:37.273Z,16.37
2018-01-08T13:40:05.375Z,13.17
2018-01-08T13:42:32.975Z,13.93
2018-01-08T13:45:01.047Z,14.37
2018-01-08T13:47:29.384Z,15.30
2018-01-08T13:49:56.975Z,17.53
2018-01-08T13:52:24.569Z,13.70
2018-01-08T13:54:52.210Z,15.63
2018-01-08T13:57:25.762Z,14.20
2018-01-08T13:59:54.016Z,15.80
2018-01-08T14:02:23.874Z,15.47
2018-01-08T14:04:51.460Z,14.37
2018-01-08T14:07:19.048Z,15.17
2018-01-08T14:09:47.383Z,13.13
2018-01-08T14:12:14.986Z,15.07
2018-01-08T14:14:43.291Z,14.90
2018-01-08T14:17:10.853Z,15.73
2018-01-08T14:19:38.535Z,14.67
2018-01-08T14:22:06.173Z,14.93
2018-01-08T14:24:33.789Z,14.77
2018-01-08T14:27:01.399Z,15.13
2018-01-08T14:29:28.986Z,15.87
2018-01-08T14:31:56.539Z,14.57
2018-01-08T14:34:24.159Z,15.87
2018-01-08T14:36:53.096Z,14.47
2018-01-08T14:39:26.088Z,16.83
2018-01-08T14:41:53.686Z,13.83
2018-01-08T14:44:21.248Z,15.60
2018-01-08T14:46:48.805Z,16.17
2018-01-08T14:49:16.442Z,13.87
2018-01-08T14:51:44.056Z,14.13
2018-01-08T14:54:11.666Z,15.27
2018-01-08T14:56:39.248Z,17.57
2018-01-08T14:59:06.799Z,15.80
2018-01-08T15:01:34.376Z,16.03
2018-01-08T15:04:01.969Z,15.67
2018-01-08T15:06:29.591Z,16.57
2018-01-08T15:08:58.148Z,14.80
2018-01-08T15:11:25.729Z,15.57
2018-01-08T15:13:53.341Z,15.60
2018-01-08T15:16:21.707Z,15.57
2018-01-08T15:18:49.320Z,14.73
2018-01-08T15:21:18.014Z,15.77
2018-01-08T15:23:45.616Z,16.00
2018-01-08T15:26:13.235Z,17.73
2018-01-08T15:28:40.898Z,18.07
2018-01-08T15:31:08.473Z,16.43
2018-01-08T15:33:36.095Z,16.23
2018-01-08T15:36:06.354Z,15.97
2018-01-08T15:38:37.432Z,16.00
2018-01-08T15:41:05.913Z,15.77
2018-01-08T15:43:33.485Z,16.90
2018-01-08T15:46:01.134Z,14.93
2018-01-08T15:48:32.401Z,17.53
2018-01-08T15:51:00.072Z,16.73
2018-01-08T15:53:28.443Z,17.07
2018-01-08T15:55:56.002Z,17.43
2018-01-08T15:58:23.569Z,16.07
2018-01-08T16:00:51.984Z,16.67
2018-01-08T16:03:19.576Z,15.87
2018-01-08T16:05:47.574Z,17.60
2018-01-08T16:08:15.184Z,16.70
2018-01-08T16:10:43.684Z,15.73
2018-01-08T16:13:12.065Z,20.47
2018-01-08T16:15:39.744Z,16.93
2018-01-08T16:18:07.321Z,17.27
2018-01-08T16:20:34.886Z,16.77
2018-01-08T16:23:02.469Z,15.37
2018-01-08T16:25:32.023Z,16.03
2018-01-08T16:28:02.148Z,19.37
2018-01-08T16:30:30.389Z,18.60
2018-01-08T16:32:59.558Z,17.17
2018-01-08T16:35:27.134Z,19.23
2018-01-08T16:37:56.555Z,19.37
2018-01-08T16:40:24.949Z,19.47
2018-01-08T16:42:52.646Z,18.87
2018-01-08T16:45:20.266Z,18.47
2018-01-08T16:47:51.285Z,21.07
2018-01-08T16:50:18.858Z,17.10
2018-01-08T16:52:47.274Z,16.50
2018-01-08T16:55:16.344Z,19.73
2018-01-08T16:57:44.710Z,20.47
2018-01-08T17:00:13.284Z,17.67
2018-01-08T17:02:40.877Z,19.50
2018-01-08T17:05:09.233Z,19.13
2018-01-08T17:07:36.832Z,17.57
2018-01-08T17:10:08.855Z,15.77
2018-01-08T17:12:37.237Z,17.03
2018-01-08T17:15:04.870Z,16.33
2018-01-08T17:17:33.468Z,17.33
2018-01-08T17:20:01.112Z,17.80
2018-01-08T17:22:28.687Z,17.80
2018-01-08T17:24:57.022Z,17.03
2018-01-08T17:27:24.730Z,19.40
2018-01-08T17:29:52.306Z,15.20
2018-01-08T17:32:19.879Z,17.20
2018-01-08T17:34:48.206Z,19.40
2018-01-08T17:37:15.831Z,16.60
2018-01-08T17:39:43.386Z,15.67
2018-01-08T17:42:11.009Z,17.73
2018-01-08T17:44:38.620Z,16.53
2018-01-08T17:47:08.225Z,17.87
2018-01-08T17:49:35.806Z,17.80
2018-01-08T17:52:03.409Z,16.87
2018-01-08T17:54:31.003Z,17.43
2018-01-08T17:56:58.595Z,16.80
2018-01-08T17:59:26.947Z,18.50
2018-01-08T18:01:54.993Z,18.40
2018-01-08T18:04:22.615Z,18.70
2018-01-08T18:06:55.116Z,19.27
2018-01-08T18:09:22.741Z,17.33
2018-01-08T18:11:51.856Z,18.20
2018-01-08T18:14:20.228Z,17.87
2018-01-08T18:16:48.650Z,18.40
2018-01-08T18:19:16.256Z,18.53
2018-01-08T18:21:43.870Z,18.87
2018-01-08T18:24:12.340Z,18.20
2018-01-08T18:26:39.951Z,19.23
2018-01-08T18:29:07.558Z,18.13
2018-01-08T18:31:35.180Z,16.50
2018-01-08T18:34:03.684Z,20.40
2018-01-08T18:36:32.060Z,19.03
2018-01-08T18:39:00.295Z,19.87
2018-01-08T18:41:27.855Z,19.43
2018-01-08T18:43:56.776Z,19.57
2018-01-08T18:46:25.149Z,19.53
2018-01-08T18:48:52.869Z,21.63
2018-01-08T18:51:20.441Z,18.37
2018-01-08T18:53:48.059Z,19.40
2018-01-08T18:56:15.626Z,20.70
2018-01-08T18:58:47.306Z,19.60
2018-01-08T19:03:56.557Z,21.17
2018-01-08T19:06:25.118Z,20.23
2018-01-08T19:08:56.224Z,22.33
2018-01-08T19:11:23.798Z,23.57
2018-01-08T19:13:51.533Z,19.47
2018-01-08T19:16:19.222Z,21.50
2018-01-08T19:18:51.621Z,21.17
2018-01-08T19:21:19.921Z,19.30
2018-01-08T19:23:47.529Z,20.40
2018-01-08T19:26:15.173Z,21.63
2018-01-08T19:28:43.111Z,21.27
2018-01-08T19:31:10.751Z,22.43
2018-01-08T19:33:38.383Z,20.53
2018-01-08T19:36:05.996Z,23.13
2018-01-08T19:38:34.348Z,23.80
2018-01-08T19:41:02.020Z,20.80
2018-01-08T19:43:29.768Z,23.30
2018-01-08T19:45:57.384Z,21.03
2018-01-08T19:48:26.046Z,20.53
2018-01-08T19:50:53.724Z,21.43
2018-01-08T19:53:21.698Z,24.27
2018-01-08T19:55:49.682Z,22.30
2018-01-08T19:58:17.365Z,20.27
2018-01-08T20:00:45.438Z,22.43
2018-01-08T20:03:18.288Z,26.00
2018-01-08T20:05:45.987Z,21.50
2018-01-08T20:08:14.379Z,22.43
2018-01-08T20:10:41.949Z,25.27
2018-01-08T20:13:09.536Z,22.43
2018-01-08T20:15:37.973Z,25.07
2018-01-08T20:18:06.517Z,25.03
2018-01-08T20:20:34.899Z,23.87
2018-01-08T20:23:02.469Z,22.33
2018-01-08T20:25:30.084Z,22.97
2018-01-08T20:27:57.779Z,23.10
2018-01-08T20:30:25.460Z,24.60
2018-01-08T20:32:53.472Z,24.03
2018-01-08T20:35:21.700Z,27.33
2018-01-08T20:37:49.266Z,24.07
2018-01-08T20:40:16.992Z,22.00
2018-01-08T20:42:45.893Z,24.50
2018-01-08T20:45:13.518Z,23.77
2018-01-08T20:47:42.893Z,25.40
2018-01-08T20:50:11.447Z,24.50
2018-01-08T20:52:39.038Z,23.93
2018-01-08T20:55:06.661Z,22.87
2018-01-08T20:57:36.215Z,23.37
2018-01-08T21:00:03.844Z,24.53
2018-01-08T21:02:31.487Z,25.83
2018-01-08T21:05:00.050Z,24.10
2018-01-08T21:07:27.748Z,23.23
2018-01-08T21:09:55.493Z,26.10
2018-01-08T21:12:23.231Z,25.13
2018-01-08T21:14:50.824Z,26.20
2018-01-08T21:17:19.429Z,23.73
2018-01-08T21:19:47.100Z,27.37
2018-01-08T21:22:15.529Z,23.20
2018-01-08T21:24:43.889Z,26.17
2018-01-08T21:27:12.504Z,26.10
2018-01-08T21:29:40.086Z,26.97
2018-01-08T21:32:09.843Z,25.33
2018-01-08T21:34:37.499Z,26.77
2018-01-08T21:37:05.071Z,26.17
2018-01-08T21:39:32.746Z,26.20
2018-01-08T21:42:00.336Z,24.23
2018-01-08T21:44:28.842Z,26.93
2018-01-08T21:46:57.799Z,27.13
2018-01-08T21:49:30.484Z,25.77
2018-01-08T21:52:01.490Z,24.67
2018-01-08T21:54:29.072Z,26.50
2018-01-08T21:56:58.178Z,27.30
2018-01-08T21:59:31.056Z,28.07
2018-01-08T22:01:59.624Z,29.80
2018-01-08T22:04:28.738Z,25.83
2018-01-08T22:06:59.355Z,28.00
2018-01-08T22:09:29.192Z,27.50
2018-01-08T22:11:59.134Z,26.77
2018-01-08T22:14:29.287Z,30.37
2018-01-08T22:17:00.957Z,28.50
2018-01-08T22:19:32.003Z,28.00
2018-01-08T22:21:59.559Z,25.43
2018-01-08T22:24:27.365Z,27.43
2018-01-08T22:26:54.949Z,26.60
2018-01-08T22:29:23.364Z,27.57
2018-01-08T22:31:50.994Z,28.57
2018-01-08T22:34:19.326Z,28.53
2018-01-08T22:36:46.986Z,27.87
2018-01-08T22:39:15.608Z,27.03
2018-01-08T22:41:43.984Z,30.77
2018-01-08T22:44:11.592Z,30.80
2018-01-08T22:46:39.302Z,29.43
2018-01-08T22:49:09.883Z,28.53
2018-01-08T22:51:37.436Z,28.90
2018-01-08T22:54:05.104Z,27.40
2018-01-08T22:56:32.737Z,29.83
2018-01-08T22:59:01.326Z,27.73
2018-01-08T23:01:28.961Z,29.57
2018-01-08T23:03:57.129Z,29.97
2018-01-08T23:06:24.711Z,30.87
2018-01-08T23:08:52.448Z,27.70
2018-01-08T23:11:20.864Z,33.37
2018-01-08T23:13:48.434Z,30.83
2018-01-08T23:16:16.046Z,31.10
2018-01-08T23:18:46.010Z,33.57
2018-01-08T23:21:13.589Z,31.57
2018-01-08T23:23:41.976Z,32.13
2018-01-08T23:26:09.541Z,30.40
2018-01-08T23:28:37.126Z,30.20
2018-01-08T23:31:04.756Z,31.30
2018-01-08T23:33:33.073Z,33.20
2018-01-08T23:36:00.654Z,30.17
2018-01-08T23:38:29.288Z,37.57
2018-01-08T23:40:57.619Z,33.33
2018-01-08T23:43:25.215Z,29.13
2018-01-08T23:45:53.579Z,34.73
2018-01-08T23:48:24.360Z,30.87
2018-01-08T23:50:52.003Z,33.63
2018-01-08T23:53:20.342Z,31.77
2018-01-08T23:55:47.930Z,31.33
2018-01-08T23:58:15.498Z,35.00
